Latest Weather Observations for Kuitpo

IDS60801

Issued at 3:41 pm CDT Monday 30 March 2020 (issued every 10 minutes, with the page automatically refreshed every 10 minutes)

About weather observations | Map of weather stations | Latest weather observations for SA | Other Formats
Station Details ID: 023887 Name: KUITPO FOREST RESERVE Lat: -35.17 Lon: 138.68 Height: 365.0 m
Data from the previous 72 hours. | See also: Recent months at Kuitpo
Date/Time
CDT
Temp
°C
App
Temp
°C
Dew
Point
°C
Rel
Hum
%
Delta-T
°C
Wind Press
QNH
hPa
Press
MSL
hPa
Rain since
9am
mm
Dir  Spd
km/h
Gust
km/h
Spd
kts
Gust
kts
30/03:30pm 18.3 14.9 7.7 50 5.5 SW 15 30 8 16 1015.3 1014.3 0.0
30/03:00pm 17.5 13.4 7.8 53 5.0 W 19 33 10 18 1015.2 1014.2 0.0
30/02:30pm 18.4 14.1 7.2 48 5.7 W 19 30 10 16 1015.2 1014.2 0.0
30/02:00pm 18.5 14.5 6.7 46 6.0 WSW 17 28 9 15 1015.3 1014.3 0.0
30/01:30pm 17.8 14.0 7.5 51 5.3 WSW 17 26 9 14 1015.4 1014.4 0.0
30/01:00pm 17.3 13.7 8.4 56 4.6 W 17 26 9 14 1015.7 1014.7 0.0
30/12:30pm 16.5 12.5 8.2 58 4.3 W 19 30 10 16 1016.0 1015.0 0.0
30/12:00pm 16.5 13.2 8.0 57 4.4 WSW 15 24 8 13 1016.3 1015.2 0.0
30/11:30am 16.2 12.9 8.2 59 4.1 WSW 15 28 8 15 1016.3 1015.2 0.0
30/11:00am 16.7 13.0 7.9 56 4.5 W 17 24 9 13 1016.2 1015.1 0.0
30/10:30am 16.0 12.2 7.7 58 4.2 W 17 30 9 16 1016.2 1015.1 0.0
30/10:00am 15.0 11.1 8.7 66 3.3 W 19 28 10 15 1015.8 1014.8 0.0
30/09:30am 15.3 12.3 9.4 68 3.1 W 15 22 8 12 1015.4 1014.4 0.0
30/09:00am 14.3 11.7 9.5 73 2.5 WSW 13 20 7 11 1015.1 1014.1 0.2
30/08:30am 13.7 12.1 10.1 79 1.9 WSW 9 17 5 9 1014.9 1013.9 0.2
30/08:00am 13.3 11.3 8.8 74 2.3 W 9 17 5 9 1014.4 1013.3 0.2
30/07:30am 13.5 11.2 7.5 67 3.0 WNW 9 15 5 8 1014.0 1012.9 0.2
30/07:00am 13.3 10.9 6.9 65 3.2 NW 9 11 5 6 1013.8 1012.7 0.2
30/06:30am 13.2 11.1 6.5 64 3.3 W 7 7 4 4 1013.6 1012.5 0.2
30/06:00am 13.3 12.1 6.6 64 3.3 SW 2 6 1 3 1013.4 1012.3 0.2
30/05:30am 13.0 10.9 6.8 66 3.0 SW 7 13 4 7 1013.2 1012.2 0.2
30/05:00am 13.2 10.4 6.8 65 3.1 WSW 11 20 6 11 1013.2 1012.2 0.2
30/04:30am 13.1 10.2 8.2 72 2.5 SW 13 22 7 12 1013.2 1012.2 0.2
30/04:00am 13.4 10.6 8.5 72 2.5 WSW 13 19 7 10 1013.1 1012.1 0.2
30/03:30am 13.5 9.4 7.9 69 2.8 WSW 19 32 10 17 1013.1 1012.1 0.2
30/03:00am 13.4 9.7 8.0 70 2.7 SW 17 30 9 16 1013.4 1012.3 0.2
30/02:30am 13.3 9.3 8.2 71 2.6 SW 19 30 10 16 1013.7 1012.6 0.2
30/02:00am 13.4 9.4 8.3 71 2.6 WSW 19 32 10 17 1013.9 1012.8 0.2
30/01:30am 13.6 9.3 9.5 76 2.1 WSW 22 33 12 18 1013.8 1012.7 0.2
30/01:00am 13.9 10.3 10.7 81 1.7 WSW 20 32 11 17 1013.8 1012.7 0.2
30/12:30am 14.1 11.1 12.1 88 1.1 WSW 19 32 10 17 1014.0 1012.9 0.2
30/12:00am 14.2 11.4 12.6 90 0.9 W 19 26 10 14 1013.7 1012.6 0.2
 
Date/Time
CDT
Temp
°C
App
Temp
°C
Dew
Point
°C
Rel
Hum
%
Delta-T
°C
Wind Press
QNH
hPa
Press
MSL
hPa
Rain since
9am
mm
Dir  Spd
km/h
Gust
km/h
Spd
kts
Gust
kts
29/11:30pm 13.9 11.4 12.3 90 0.9 W 17 26 9 14 1013.6 1012.5 0.2
29/11:00pm 14.1 11.4 11.8 86 1.3 W 17 30 9 16 1013.4 1012.3 0.2
29/10:30pm 14.1 11.2 10.9 81 1.7 W 17 26 9 14 1013.4 1012.3 0.2
29/10:00pm 14.1 11.6 10.9 81 1.7 W 15 22 8 12 1013.1 1012.1 0.2
29/09:30pm 14.3 12.4 11.8 85 1.4 W 13 19 7 10 1012.9 1011.9 0.2
29/09:00pm 14.4 12.1 11.9 85 1.4 W 15 20 8 11 1012.6 1011.6 0.2
29/08:30pm 14.9 12.8 12.4 85 1.4 W 15 26 8 14 1012.5 1011.5 0.2
29/08:00pm 15.4 13.2 12.2 81 1.8 WSW 15 22 8 12 1012.1 1011.0 0.2
29/07:30pm 16.0 14.0 12.7 81 1.9 WSW 15 22 8 12 1011.9 1010.8 0.2
29/07:00pm 16.4 13.9 12.4 77 2.2 W 17 26 9 14 1011.7 1010.6 0.2
29/06:30pm 17.1 14.4 11.6 70 3.1 W 17 24 9 13 1011.2 1010.1 0.2
29/06:00pm 17.7 14.6 11.5 67 3.4 W 19 28 10 15 1010.9 1009.8 0.2
29/05:30pm 18.6 15.8 11.2 62 4.1 WSW 17 28 9 15 1010.7 1009.6 0.2
29/05:00pm 18.9 15.6 11.5 62 4.1 W 20 30 11 16 1010.2 1009.2 0.2
29/04:30pm 19.6 16.7 11.1 58 4.7 W 17 30 9 16 1010.2 1009.2 0.2
29/04:00pm 20.1 17.1 11.8 59 4.7 W 19 30 10 16 1010.1 1009.1 0.2
29/03:30pm 19.7 16.5 11.2 58 4.7 W 19 28 10 15 1010.0 1009.0 0.2
29/03:00pm 20.2 16.6 10.6 54 5.3 W 20 35 11 19 1010.0 1009.0 0.2
29/02:30pm 20.2 17.0 10.0 52 5.6 W 17 28 9 15 1010.1 1009.1 0.2
29/02:00pm 19.8 16.8 10.8 56 5.0 WSW 17 33 9 18 1010.3 1009.3 0.2
29/01:30pm 19.0 17.2 13.4 70 3.2 WSW 15 26 8 14 1010.7 1009.6 0.2
29/01:00pm 19.1 17.1 12.8 67 3.6 WSW 15 28 8 15 1010.6 1009.5 0.2
29/12:30pm 18.4 15.7 13.5 73 2.8 WSW 20 30 11 16 1010.6 1009.5 0.2
29/12:00pm 18.5 16.0 13.6 73 2.8 W 19 33 10 18 1010.2 1009.2 0.2
29/11:30am 18.4 15.5 15.1 81 2.0 W 24 35 13 19 1010.1 1009.1 0.2
29/11:00am 19.7 17.7 15.4 76 2.6 W 20 33 11 18 1009.9 1008.8 0.2
29/10:30am 18.5 15.3 15.2 81 2.0 W 26 41 14 22 1009.7 1008.6 0.2
29/10:00am 20.7 16.2 8.7 46 6.4 NW 22 33 12 18 1009.1 1008.0 0.2
29/09:30am 19.6 15.5 8.0 47 6.1 NW 19 32 10 17 1008.6 1007.5 0.2
29/09:00am 15.9 13.8 9.8 67 3.2 N 11 19 6 10 1009.0 1007.9 1.2
29/08:30am 14.2 11.0 10.0 76 2.2 NE 17 28 9 15 1008.1 1007.0 1.2
29/08:27am 14.2 11.4 10.0 76 2.2 NNE 15 28 8 15 1008.4 1007.3 1.2
29/08:00am 15.9 13.5 8.6 62 3.8 WNW 11 19 6 10 1010.8 1009.7 0.8
29/07:30am 19.2 14.8 4.6 38 7.2 NW 17 28 9 15 1010.6 1009.5 0.0
29/07:00am 20.2 14.7 2.1 30 8.5 WNW 20 32 11 17 1009.9 1008.8 0.0
29/06:40am 22.3 15.0 0.2 23 10.2 WNW 28 46 15 25 1009.5 1008.4 0.0
29/06:30am 23.1 17.3 0.2 22 10.6 NW 20 33 11 18 1008.8 1007.7 0.0
29/06:00am 24.1 16.9 0.4 21 11.1 NW 28 50 15 27 1008.1 1007.0 0.0
29/05:55am 24.2 17.0 0.5 21 11.1 NNW 28 50 15 27 1007.9 1006.8 0.0
29/05:30am 24.3 18.0 -0.8 19 11.6 NNW 22 39 12 21 1007.2 1006.1 0.0
29/05:00am 24.5 17.7 -2.1 17 11.9 N 24 46 13 25 1006.5 1005.4 0.0
29/04:30am 24.2 18.0 -4.9 14 12.4 NNW 19 33 10 18 1007.2 1006.1 0.0
29/04:00am 23.5 18.1 -4.6 15 11.9 NNW 15 30 8 16 1007.1 1006.0 0.0
29/03:30am 23.5 18.1 -4.6 15 12.0 NNW 15 28 8 15 1007.1 1006.0 0.0
29/03:00am 22.5 17.9 -3.7 17 11.2 NNW 11 20 6 11 1007.7 1006.6 0.0
29/02:30am 20.9 16.8 -2.9 20 10.2 N 9 17 5 9 1007.9 1006.8 0.0
29/02:00am 20.5 16.5 -2.5 21 9.9 N 9 15 5 8 1008.4 1007.3 0.0
29/01:30am 19.9 16.0 -1.8 23 9.4 NNE 9 15 5 8 1008.6 1007.5 0.0
29/01:00am 19.4 15.6 -1.1 25 9.0 NNE 9 13 5 7 1008.6 1007.5 0.0
29/12:30am 19.3 14.7 -1.2 25 9.0 NNE 13 24 7 13 1008.9 1007.8 0.0
29/12:00am 18.7 13.4 -0.7 27 8.5 NE 17 24 9 13 1009.1 1008.0 0.0
 
Date/Time
CDT
Temp
°C
App
Temp
°C
Dew
Point
°C
Rel
Hum
%
Delta-T
°C
Wind Press
QNH
hPa
Press
MSL
hPa
Rain since
9am
mm
Dir  Spd
km/h
Gust
km/h
Spd
kts
Gust
kts
28/11:30pm 19.1 14.2 -0.8 26 8.8 NE 15 22 8 12 1009.8 1008.7 0.0
28/11:00pm 19.0 14.4 -0.9 26 8.7 NNE 13 19 7 10 1010.7 1009.6 0.0
28/10:30pm 19.2 14.6 -1.3 25 8.9 NE 13 19 7 10 1010.9 1009.8 0.0
28/10:00pm 19.7 15.8 -1.4 24 9.2 NNE 9 13 5 7 1011.4 1010.3 0.0
28/09:30pm 20.6 16.7 -1.8 22 9.8 NNE 9 13 5 7 1011.7 1010.6 0.0
28/09:00pm 21.1 17.5 -2.0 21 10.1 N 7 9 4 5 1012.1 1011.0 0.0
28/08:30pm 21.5 18.0 -1.7 21 10.2 N 7 11 4 6 1011.9 1010.8 0.0
28/08:00pm 22.5 18.9 -2.2 19 10.9 N 7 9 4 5 1011.7 1010.6 0.0
28/07:30pm 23.6 19.2 -2.8 17 11.6 NNW 11 13 6 7 1011.9 1010.8 0.0
28/07:00pm 24.4 20.3 -3.0 16 12.1 NW 9 13 5 7 1012.1 1011.0 0.0
28/06:30pm 25.5 21.5 -2.1 16 12.5 NNW 9 15 5 8 1012.0 1010.9 0.0
28/06:00pm 26.0 22.2 -0.9 17 12.5 NW 9 13 5 7 1012.0 1010.9 0.0
28/05:30pm 26.7 22.0 1.2 19 12.4 WNW 15 20 8 11 1012.1 1011.0 0.0
28/05:00pm 26.9 22.9 0.6 18 12.6 WNW 11 20 6 11 1012.0 1010.9 0.0
28/04:30pm 27.4 23.1 1.0 18 12.8 NW 13 20 7 11 1012.3 1011.2 0.0
28/04:00pm 27.2 22.4 0.1 17 12.9 WNW 15 26 8 14 1012.5 1011.5 0.0
28/03:30pm 26.7 21.8 1.9 20 12.2 NW 17 28 9 15 1012.7 1011.7 0.0
28/03:00pm 27.5 22.9 3.9 22 12.1 NW 17 24 9 13 1012.9 1011.9 0.0
28/02:30pm 27.2 23.2 4.9 24 11.6 WNW 15 28 8 15 1013.4 1012.3 0.0
28/02:00pm 25.9 21.3 5.5 27 10.6 WNW 19 35 10 19 1013.9 1012.8 0.0
28/01:30pm 26.8 22.2 5.7 26 11.1 NW 19 30 10 16 1014.3 1013.2 0.0
28/01:00pm 26.8 22.7 6.2 27 10.9 NW 17 33 9 18 1014.7 1013.6 0.0
28/12:30pm 26.5 22.6 5.5 26 11.0 NW 15 24 8 13 1015.2 1014.2 0.0
28/12:00pm 25.5 20.5 4.6 26 10.7 NNW 20 32 11 17 1015.5 1014.5 0.0
28/11:30am 25.9 21.3 3.8 24 11.2 NNW 17 26 9 14 1015.8 1014.8 0.0
28/11:00am 26.3 21.8 4.1 24 11.3 NNW 17 28 9 15 1016.3 1015.2 0.0
28/10:30am 25.2 22.3 4.9 27 10.4 N 9 19 5 10 1016.5 1015.4 0.0
28/10:00am 22.9 19.9 3.9 29 9.4 NNE 9 17 5 9 1016.5 1015.4 0.0
28/09:30am 22.0 19.0 4.1 31 8.9 NNE 9 17 5 9 1016.5 1015.4 0.0
28/09:00am 19.1 15.7 2.0 32 7.9 NNE 9 15 5 8 1016.5 1015.4 0.0
28/08:30am 18.3 14.9 1.8 33 7.6 NNE 9 13 5 7 1016.5 1015.4 0.0
28/08:00am 16.8 13.0 1.7 36 6.9 NNE 11 15 6 8 1016.5 1015.4 0.0
28/07:30am 15.6 11.7 1.4 38 6.3 NNE 11 15 6 8 1016.2 1015.1 0.0
28/07:00am 14.6 10.6 0.8 39 6.0 NNE 11 15 6 8 1016.0 1015.0 0.0
28/06:30am 14.7 10.3 0.2 37 6.3 NE 13 15 7 8 1016.0 1015.0 0.0
28/06:00am 15.2 10.7 -0.5 34 6.7 NE 13 19 7 10 1015.8 1014.8 0.0
28/05:30am 15.7 11.2 -0.5 33 6.9 NNE 13 17 7 9 1015.8 1014.8 0.0
28/05:00am 15.4 11.3 -0.4 34 6.8 NNE 11 15 6 8 1015.9 1014.9 0.0
28/04:30am 15.3 10.9 0.3 36 6.5 NNE 13 19 7 10 1016.0 1015.0 0.0
28/04:00am 15.4 11.1 0.8 37 6.4 NNE 13 19 7 10 1016.2 1015.1 0.0
28/03:30am 14.5 10.4 2.1 43 5.6 NNE 13 19 7 10 1016.6 1015.5 0.0
28/03:00am 15.2 11.2 2.7 43 5.7 NE 13 20 7 11 1016.8 1015.7 0.0
28/02:30am 15.0 11.1 3.5 46 5.3 NE 13 19 7 10 1017.1 1016.0 0.0
28/02:00am 14.9 11.4 5.4 53 4.6 NE 13 19 7 10 1017.4 1016.4 0.0
28/01:30am 15.1 11.6 5.3 52 4.7 NE 13 19 7 10 1017.5 1016.5 0.0
28/01:00am 15.9 12.0 5.5 50 5.1 ENE 15 20 8 11 1017.8 1016.8 0.0
28/12:30am 15.4 12.3 5.6 52 4.8 ENE 11 15 6 8 1018.1 1017.1 0.0
28/12:00am 16.8 13.2 4.8 45 5.8 ENE 13 17 7 9 1018.4 1017.4 0.0
 
Date/Time
CDT
Temp
°C
App
Temp
°C
Dew
Point
°C
Rel
Hum
%
Delta-T
°C
Wind Press
QNH
hPa
Press
MSL
hPa
Rain since
9am
mm
Dir  Spd
km/h
Gust
km/h
Spd
kts
Gust
kts
27/11:30pm 16.7 12.7 5.0 46 5.7 E 15 19 8 10 1018.5 1017.5 0.0
27/11:00pm 17.4 13.0 4.7 43 6.2 E 17 20 9 11 1018.7 1017.7 0.0
27/10:30pm 17.3 12.6 5.3 45 5.9 E 19 22 10 12 1018.8 1017.8 0.0
27/10:00pm 16.9 12.8 6.1 49 5.4 ESE 17 20 9 11 1018.8 1017.8 0.0
27/09:30pm 16.8 12.9 7.2 53 4.9 ESE 17 20 9 11 1018.8 1017.8 0.0
27/09:00pm 17.0 13.6 7.6 54 4.8 ESE 15 20 8 11 1018.8 1017.8 0.0
27/08:30pm 17.7 14.2 5.3 44 6.1 ESE 13 17 7 9 1018.7 1017.7 0.0
27/08:00pm 19.6 16.8 2.9 33 7.9 S 7 9 4 5 1018.5 1017.5 0.0
27/07:30pm 19.5 16.3 2.8 33 7.9 WSW 9 9 5 5 1018.4 1017.4 0.0
27/07:00pm 20.7 17.9 3.0 31 8.5 W 7 11 4 6 1018.3 1017.3 0.0
27/06:30pm 21.8 18.2 3.0 29 9.1 SW 11 17 6 9 1018.2 1017.2 0.0
27/06:00pm 22.6 18.9 4.6 31 9.0 WSW 13 22 7 12 1018.2 1017.2 0.0
27/05:30pm 23.2 19.5 4.7 30 9.3 WSW 13 20 7 11 1018.2 1017.2 0.0
27/05:00pm 23.6 19.9 4.5 29 9.6 W 13 20 7 11 1018.3 1017.3 0.0
27/04:30pm 23.7 19.5 5.6 31 9.3 W 17 26 9 14 1018.4 1017.4 0.0
27/04:00pm 24.2 20.4 6.0 31 9.5 W 15 20 8 11 1018.7 1017.7 0.0

Other formats

Comma delimited format used in spreadsheet applications
http://www.bom.gov.au/fwo/IDS60801/IDS60801.94683.axf

JavaScript Object Notation format (JSON) in row-major order
http://www.bom.gov.au/fwo/IDS60801/IDS60801.94683.json

Data quality

Most of these data are generated automatically and are frequently updated. Quality checks on data are not normally performed. It is possible for incorrect values to appear. Refer to information at About Latest Weather Observations and please check the disclaimer before using these data.